sensor_id;sensor_type;location;lat;lon;timestamp;P1;durP1;ratioP1;P2;durP2;ratioP2
53961;SDS011;39868;53.398;6.564;2023-05-31T00:01:32;3.08;;;1.77;;
53961;SDS011;39868;53.398;6.564;2023-05-31T00:03:59;2.35;;;1.73;;
53961;SDS011;39868;53.398;6.564;2023-05-31T00:06:27;3.50;;;2.15;;
53961;SDS011;39868;53.398;6.564;2023-05-31T00:08:55;4.75;;;1.80;;
53961;SDS011;39868;53.398;6.564;2023-05-31T00:11:22;3.60;;;2.08;;
53961;SDS011;39868;53.398;6.564;2023-05-31T00:13:49;4.13;;;1.88;;
53961;SDS011;39868;53.398;6.564;2023-05-31T00:16:17;2.67;;;1.80;;
53961;SDS011;39868;53.398;6.564;2023-05-31T00:19:05;3.50;;;1.95;;
53961;SDS011;39868;53.398;6.564;2023-05-31T00:21:32;5.05;;;1.83;;
53961;SDS011;39868;53.398;6.564;2023-05-31T00:24:00;4.03;;;2.10;;
53961;SDS011;39868;53.398;6.564;2023-05-31T00:26:27;3.42;;;1.98;;
53961;SDS011;39868;53.398;6.564;2023-05-31T00:28:54;3.60;;;1.90;;
53961;SDS011;39868;53.398;6.564;2023-05-31T00:31:22;3.25;;;1.67;;
53961;SDS011;39868;53.398;6.564;2023-05-31T00:33:49;3.75;;;1.83;;
53961;SDS011;39868;53.398;6.564;2023-05-31T00:36:17;3.08;;;1.80;;
53961;SDS011;39868;53.398;6.564;2023-05-31T00:38:44;4.35;;;2.03;;
53961;SDS011;39868;53.398;6.564;2023-05-31T00:41:12;3.53;;;2.00;;
53961;SDS011;39868;53.398;6.564;2023-05-31T00:43:39;4.13;;;1.80;;
53961;SDS011;39868;53.398;6.564;2023-05-31T00:46:14;3.15;;;1.83;;
53961;SDS011;39868;53.398;6.564;2023-05-31T00:48:54;3.35;;;1.83;;
53961;SDS011;39868;53.398;6.564;2023-05-31T00:51:23;4.68;;;2.10;;
53961;SDS011;39868;53.398;6.564;2023-05-31T00:53:53;2.67;;;1.67;;
53961;SDS011;39868;53.398;6.564;2023-05-31T00:56:21;5.63;;;2.20;;
53961;SDS011;39868;53.398;6.564;2023-05-31T00:58:48;3.38;;;1.88;;
53961;SDS011;39868;53.398;6.564;2023-05-31T01:01:20;3.20;;;2.05;;
53961;SDS011;39868;53.398;6.564;2023-05-31T01:03:53;4.50;;;2.47;;
53961;SDS011;39868;53.398;6.564;2023-05-31T01:06:22;4.88;;;1.85;;
53961;SDS011;39868;53.398;6.564;2023-05-31T01:08:53;5.90;;;2.00;;
53961;SDS011;39868;53.398;6.564;2023-05-31T01:17:17;2.67;;;1.77;;
53961;SDS011;39868;53.398;6.564;2023-05-31T01:19:58;5.75;;;2.17;;
53961;SDS011;39868;53.398;6.564;2023-05-31T01:23:02;2.95;;;1.73;;
53961;SDS011;39868;53.398;6.564;2023-05-31T01:28:27;5.80;;;2.28;;
53961;SDS011;39868;53.398;6.564;2023-05-31T01:31:01;3.47;;;2.42;;
53961;SDS011;39868;53.398;6.564;2023-05-31T01:33:31;3.83;;;2.10;;
53961;SDS011;39868;53.398;6.564;2023-05-31T01:36:01;4.38;;;2.30;;
53961;SDS011;39868;53.398;6.564;2023-05-31T01:38:30;3.72;;;1.98;;
53961;SDS011;39868;53.398;6.564;2023-05-31T01:40:57;4.70;;;2.10;;
53961;SDS011;39868;53.398;6.564;2023-05-31T01:43:25;5.55;;;2.40;;
53961;SDS011;39868;53.398;6.564;2023-05-31T01:45:55;4.07;;;2.42;;
53961;SDS011;39868;53.398;6.564;2023-05-31T01:48:24;7.45;;;2.58;;
53961;SDS011;39868;53.398;6.564;2023-05-31T01:50:53;4.88;;;2.58;;
53961;SDS011;39868;53.398;6.564;2023-05-31T01:53:23;4.50;;;2.40;;
53961;SDS011;39868;53.398;6.564;2023-05-31T01:55:51;6.43;;;2.88;;
53961;SDS011;39868;53.398;6.564;2023-05-31T01:58:19;4.55;;;2.40;;
53961;SDS011;39868;53.398;6.564;2023-05-31T02:00:49;4.43;;;2.20;;
53961;SDS011;39868;53.398;6.564;2023-05-31T02:03:17;3.42;;;2.33;;
53961;SDS011;39868;53.398;6.564;2023-05-31T02:08:41;2.47;;;1.77;;
53961;SDS011;39868;53.398;6.564;2023-05-31T02:11:08;3.33;;;2.10;;
53961;SDS011;39868;53.398;6.564;2023-05-31T02:13:36;3.47;;;2.08;;
53961;SDS011;39868;53.398;6.564;2023-05-31T02:16:03;3.83;;;2.08;;
53961;SDS011;39868;53.398;6.564;2023-05-31T02:18:32;5.38;;;2.40;;
53961;SDS011;39868;53.398;6.564;2023-05-31T02:20:59;4.53;;;2.13;;
53961;SDS011;39868;53.398;6.564;2023-05-31T02:23:27;4.68;;;2.17;;
53961;SDS011;39868;53.398;6.564;2023-05-31T02:25:54;4.30;;;2.00;;
53961;SDS011;39868;53.398;6.564;2023-05-31T02:28:23;3.58;;;2.00;;
53961;SDS011;39868;53.398;6.564;2023-05-31T02:30:57;3.80;;;1.90;;
53961;SDS011;39868;53.398;6.564;2023-05-31T02:33:28;3.35;;;1.92;;
53961;SDS011;39868;53.398;6.564;2023-05-31T02:35:56;5.30;;;2.38;;
53961;SDS011;39868;53.398;6.564;2023-05-31T02:38:23;3.65;;;2.05;;
53961;SDS011;39868;53.398;6.564;2023-05-31T02:40:51;2.90;;;2.05;;
53961;SDS011;39868;53.398;6.564;2023-05-31T02:43:19;3.13;;;1.90;;
53961;SDS011;39868;53.398;6.564;2023-05-31T02:45:46;3.75;;;1.98;;
53961;SDS011;39868;53.398;6.564;2023-05-31T02:48:14;4.97;;;2.03;;
53961;SDS011;39868;53.398;6.564;2023-05-31T02:50:41;6.80;;;2.15;;
53961;SDS011;39868;53.398;6.564;2023-05-31T02:53:21;6.60;;;2.38;;
53961;SDS011;39868;53.398;6.564;2023-05-31T02:55:54;3.55;;;1.95;;
53961;SDS011;39868;53.398;6.564;2023-05-31T02:58:22;4.30;;;2.00;;
53961;SDS011;39868;53.398;6.564;2023-05-31T03:01:07;4.38;;;1.67;;
53961;SDS011;39868;53.398;6.564;2023-05-31T03:03:48;2.83;;;1.50;;
53961;SDS011;39868;53.398;6.564;2023-05-31T03:06:22;3.40;;;1.77;;
53961;SDS011;39868;53.398;6.564;2023-05-31T03:08:50;3.28;;;1.90;;
53961;SDS011;39868;53.398;6.564;2023-05-31T03:11:18;3.17;;;1.52;;
53961;SDS011;39868;53.398;6.564;2023-05-31T03:13:46;4.22;;;1.85;;
53961;SDS011;39868;53.398;6.564;2023-05-31T03:16:13;4.07;;;1.75;;
53961;SDS011;39868;53.398;6.564;2023-05-31T03:18:43;5.13;;;1.80;;
53961;SDS011;39868;53.398;6.564;2023-05-31T03:21:10;4.45;;;1.80;;
53961;SDS011;39868;53.398;6.564;2023-05-31T03:23:38;2.42;;;1.50;;
53961;SDS011;39868;53.398;6.564;2023-05-31T03:26:05;3.47;;;1.58;;
53961;SDS011;39868;53.398;6.564;2023-05-31T03:28:33;2.55;;;1.77;;
53961;SDS011;39868;53.398;6.564;2023-05-31T03:31:01;4.15;;;1.80;;
53961;SDS011;39868;53.398;6.564;2023-05-31T03:33:29;4.32;;;1.92;;
53961;SDS011;39868;53.398;6.564;2023-05-31T03:35:58;3.60;;;2.20;;
53961;SDS011;39868;53.398;6.564;2023-05-31T03:38:25;3.25;;;1.90;;
53961;SDS011;39868;53.398;6.564;2023-05-31T03:40:52;4.78;;;2.53;;
53961;SDS011;39868;53.398;6.564;2023-05-31T03:43:20;3.28;;;1.88;;
53961;SDS011;39868;53.398;6.564;2023-05-31T03:45:47;4.78;;;2.00;;
53961;SDS011;39868;53.398;6.564;2023-05-31T03:48:15;3.85;;;2.03;;
53961;SDS011;39868;53.398;6.564;2023-05-31T03:50:43;3.13;;;1.80;;
53961;SDS011;39868;53.398;6.564;2023-05-31T03:53:10;3.53;;;1.75;;
53961;SDS011;39868;53.398;6.564;2023-05-31T03:55:37;5.90;;;2.08;;
53961;SDS011;39868;53.398;6.564;2023-05-31T03:58:05;3.80;;;2.00;;
53961;SDS011;39868;53.398;6.564;2023-05-31T04:00:35;3.97;;;2.03;;
53961;SDS011;39868;53.398;6.564;2023-05-31T04:03:03;4.43;;;1.88;;
53961;SDS011;39868;53.398;6.564;2023-05-31T04:05:33;4.32;;;1.92;;
53961;SDS011;39868;53.398;6.564;2023-05-31T04:08:00;7.47;;;1.65;;
53961;SDS011;39868;53.398;6.564;2023-05-31T04:10:31;4.45;;;2.03;;
53961;SDS011;39868;53.398;6.564;2023-05-31T04:12:59;3.45;;;2.00;;
53961;SDS011;39868;53.398;6.564;2023-05-31T04:15:26;4.55;;;1.88;;
53961;SDS011;39868;53.398;6.564;2023-05-31T04:17:58;4.82;;;1.88;;
53961;SDS011;39868;53.398;6.564;2023-05-31T04:20:26;4.15;;;2.13;;
53961;SDS011;39868;53.398;6.564;2023-05-31T04:22:53;4.90;;;1.65;;
53961;SDS011;39868;53.398;6.564;2023-05-31T04:25:23;6.32;;;1.67;;
53961;SDS011;39868;53.398;6.564;2023-05-31T04:27:50;4.45;;;1.95;;
53961;SDS011;39868;53.398;6.564;2023-05-31T04:30:18;4.97;;;2.00;;
53961;SDS011;39868;53.398;6.564;2023-05-31T04:32:45;8.35;;;2.17;;
53961;SDS011;39868;53.398;6.564;2023-05-31T04:35:19;4.43;;;2.00;;
53961;SDS011;39868;53.398;6.564;2023-05-31T04:37:49;3.15;;;1.77;;
53961;SDS011;39868;53.398;6.564;2023-05-31T04:40:19;2.78;;;1.80;;
53961;SDS011;39868;53.398;6.564;2023-05-31T04:42:47;2.92;;;1.90;;
53961;SDS011;39868;53.398;6.564;2023-05-31T04:45:27;6.47;;;2.30;;
53961;SDS011;39868;53.398;6.564;2023-05-31T04:47:55;4.20;;;2.20;;
53961;SDS011;39868;53.398;6.564;2023-05-31T04:50:24;5.18;;;1.88;;
53961;SDS011;39868;53.398;6.564;2023-05-31T04:52:54;4.15;;;2.08;;
53961;SDS011;39868;53.398;6.564;2023-05-31T04:55:22;6.50;;;1.88;;
53961;SDS011;39868;53.398;6.564;2023-05-31T04:57:50;3.30;;;1.90;;
53961;SDS011;39868;53.398;6.564;2023-05-31T05:00:18;4.72;;;2.10;;
53961;SDS011;39868;53.398;6.564;2023-05-31T05:02:55;3.88;;;2.67;;
53961;SDS011;39868;53.398;6.564;2023-05-31T05:05:23;4.25;;;2.00;;
53961;SDS011;39868;53.398;6.564;2023-05-31T05:07:50;2.72;;;2.05;;
53961;SDS011;39868;53.398;6.564;2023-05-31T05:10:19;4.43;;;2.58;;
53961;SDS011;39868;53.398;6.564;2023-05-31T05:12:46;3.38;;;2.50;;
53961;SDS011;39868;53.398;6.564;2023-05-31T05:15:14;2.35;;;1.92;;
53961;SDS011;39868;53.398;6.564;2023-05-31T05:17:42;5.60;;;2.50;;
53961;SDS011;39868;53.398;6.564;2023-05-31T05:20:11;4.40;;;2.40;;
53961;SDS011;39868;53.398;6.564;2023-05-31T05:22:41;4.38;;;2.30;;
53961;SDS011;39868;53.398;6.564;2023-05-31T05:25:09;2.95;;;2.30;;
53961;SDS011;39868;53.398;6.564;2023-05-31T05:27:37;2.40;;;1.95;;
53961;SDS011;39868;53.398;6.564;2023-05-31T05:30:04;3.85;;;1.90;;
53961;SDS011;39868;53.398;6.564;2023-05-31T05:32:32;2.47;;;2.28;;
53961;SDS011;39868;53.398;6.564;2023-05-31T05:35:00;2.28;;;1.95;;
53961;SDS011;39868;53.398;6.564;2023-05-31T05:37:27;2.30;;;2.10;;
53961;SDS011;39868;53.398;6.564;2023-05-31T05:39:55;2.08;;;1.98;;
53961;SDS011;39868;53.398;6.564;2023-05-31T05:42:24;3.10;;;2.10;;
53961;SDS011;39868;53.398;6.564;2023-05-31T05:44:52;2.45;;;1.90;;
53961;SDS011;39868;53.398;6.564;2023-05-31T05:47:19;3.60;;;1.70;;
53961;SDS011;39868;53.398;6.564;2023-05-31T05:49:49;2.47;;;1.90;;
53961;SDS011;39868;53.398;6.564;2023-05-31T05:52:17;5.00;;;1.98;;
53961;SDS011;39868;53.398;6.564;2023-05-31T05:54:45;5.25;;;2.00;;
53961;SDS011;39868;53.398;6.564;2023-05-31T05:57:13;3.35;;;2.40;;
53961;SDS011;39868;53.398;6.564;2023-05-31T05:59:43;2.53;;;1.90;;
53961;SDS011;39868;53.398;6.564;2023-05-31T06:02:19;2.70;;;2.03;;
53961;SDS011;39868;53.398;6.564;2023-05-31T06:04:49;5.57;;;2.50;;
53961;SDS011;39868;53.398;6.564;2023-05-31T06:07:18;2.33;;;2.13;;
53961;SDS011;39868;53.398;6.564;2023-05-31T06:09:49;2.15;;;1.95;;
53961;SDS011;39868;53.398;6.564;2023-05-31T06:12:16;2.42;;;1.95;;
53961;SDS011;39868;53.398;6.564;2023-05-31T06:14:44;2.20;;;1.90;;
53961;SDS011;39868;53.398;6.564;2023-05-31T06:17:11;3.63;;;2.00;;
53961;SDS011;39868;53.398;6.564;2023-05-31T06:19:38;2.13;;;1.90;;
53961;SDS011;39868;53.398;6.564;2023-05-31T06:22:06;4.80;;;1.90;;
53961;SDS011;39868;53.398;6.564;2023-05-31T06:24:34;2.85;;;2.00;;
53961;SDS011;39868;53.398;6.564;2023-05-31T06:27:01;2.08;;;1.88;;
53961;SDS011;39868;53.398;6.564;2023-05-31T06:29:33;2.00;;;1.90;;
53961;SDS011;39868;53.398;6.564;2023-05-31T06:32:08;2.60;;;2.05;;
53961;SDS011;39868;53.398;6.564;2023-05-31T06:34:40;3.80;;;1.80;;
53961;SDS011;39868;53.398;6.564;2023-05-31T06:37:08;2.10;;;1.58;;
53961;SDS011;39868;53.398;6.564;2023-05-31T06:39:35;1.70;;;1.60;;
53961;SDS011;39868;53.398;6.564;2023-05-31T06:42:02;3.13;;;1.80;;
53961;SDS011;39868;53.398;6.564;2023-05-31T06:45:05;1.70;;;1.60;;
53961;SDS011;39868;53.398;6.564;2023-05-31T06:47:39;1.80;;;1.70;;
53961;SDS011;39868;53.398;6.564;2023-05-31T06:50:15;1.90;;;1.73;;
53961;SDS011;39868;53.398;6.564;2023-05-31T06:52:46;3.10;;;1.60;;
53961;SDS011;39868;53.398;6.564;2023-05-31T06:55:25;5.22;;;1.58;;
53961;SDS011;39868;53.398;6.564;2023-05-31T06:57:53;4.00;;;1.40;;
53961;SDS011;39868;53.398;6.564;2023-05-31T07:00:20;2.45;;;1.30;;
53961;SDS011;39868;53.398;6.564;2023-05-31T07:02:47;2.03;;;1.40;;
53961;SDS011;39868;53.398;6.564;2023-05-31T07:05:15;2.53;;;1.60;;
53961;SDS011;39868;53.398;6.564;2023-05-31T07:07:45;1.40;;;1.30;;
53961;SDS011;39868;53.398;6.564;2023-05-31T07:10:12;2.25;;;1.35;;
53961;SDS011;39868;53.398;6.564;2023-05-31T07:12:39;2.50;;;1.33;;
53961;SDS011;39868;53.398;6.564;2023-05-31T07:15:07;1.83;;;1.42;;
53961;SDS011;39868;53.398;6.564;2023-05-31T07:17:38;5.07;;;1.60;;
53961;SDS011;39868;53.398;6.564;2023-05-31T07:20:05;3.25;;;1.50;;
53961;SDS011;39868;53.398;6.564;2023-05-31T07:22:34;2.67;;;1.40;;
53961;SDS011;39868;53.398;6.564;2023-05-31T07:25:01;1.83;;;1.52;;
53961;SDS011;39868;53.398;6.564;2023-05-31T07:27:30;3.20;;;1.58;;
53961;SDS011;39868;53.398;6.564;2023-05-31T07:29:58;3.20;;;1.77;;
53961;SDS011;39868;53.398;6.564;2023-05-31T07:32:25;2.95;;;1.63;;
53961;SDS011;39868;53.398;6.564;2023-05-31T07:34:52;5.93;;;2.15;;
53961;SDS011;39868;53.398;6.564;2023-05-31T07:37:30;4.03;;;2.00;;
53961;SDS011;39868;53.398;6.564;2023-05-31T07:39:57;5.10;;;2.13;;
53961;SDS011;39868;53.398;6.564;2023-05-31T07:42:25;4.38;;;2.30;;
53961;SDS011;39868;53.398;6.564;2023-05-31T07:44:53;7.35;;;2.10;;
53961;SDS011;39868;53.398;6.564;2023-05-31T07:47:20;3.92;;;2.33;;
53961;SDS011;39868;53.398;6.564;2023-05-31T07:49:49;6.55;;;2.50;;
53961;SDS011;39868;53.398;6.564;2023-05-31T07:52:18;4.55;;;2.63;;
53961;SDS011;39868;53.398;6.564;2023-05-31T07:54:48;2.85;;;2.05;;
53961;SDS011;39868;53.398;6.564;2023-05-31T07:57:16;5.03;;;2.33;;
53961;SDS011;39868;53.398;6.564;2023-05-31T07:59:44;4.78;;;2.78;;
53961;SDS011;39868;53.398;6.564;2023-05-31T08:02:11;6.32;;;2.65;;
53961;SDS011;39868;53.398;6.564;2023-05-31T08:04:39;9.07;;;2.60;;
53961;SDS011;39868;53.398;6.564;2023-05-31T08:07:06;5.10;;;2.40;;
53961;SDS011;39868;53.398;6.564;2023-05-31T08:09:33;5.47;;;3.00;;
53961;SDS011;39868;53.398;6.564;2023-05-31T08:12:01;4.65;;;2.50;;
53961;SDS011;39868;53.398;6.564;2023-05-31T08:14:33;6.10;;;2.45;;
53961;SDS011;39868;53.398;6.564;2023-05-31T08:17:00;9.05;;;2.65;;
53961;SDS011;39868;53.398;6.564;2023-05-31T08:19:28;8.50;;;2.83;;
53961;SDS011;39868;53.398;6.564;2023-05-31T08:21:55;6.32;;;2.83;;
53961;SDS011;39868;53.398;6.564;2023-05-31T08:24:22;4.40;;;2.90;;
53961;SDS011;39868;53.398;6.564;2023-05-31T08:26:50;6.43;;;2.90;;
53961;SDS011;39868;53.398;6.564;2023-05-31T08:29:17;6.57;;;2.53;;
53961;SDS011;39868;53.398;6.564;2023-05-31T08:31:44;4.25;;;2.55;;
53961;SDS011;39868;53.398;6.564;2023-05-31T08:34:11;3.92;;;2.70;;
53961;SDS011;39868;53.398;6.564;2023-05-31T08:36:39;8.57;;;2.70;;
53961;SDS011;39868;53.398;6.564;2023-05-31T08:39:07;3.58;;;2.83;;
53961;SDS011;39868;53.398;6.564;2023-05-31T08:44:27;7.57;;;2.85;;
53961;SDS011;39868;53.398;6.564;2023-05-31T08:47:04;7.50;;;2.90;;
53961;SDS011;39868;53.398;6.564;2023-05-31T08:49:39;9.15;;;3.10;;
53961;SDS011;39868;53.398;6.564;2023-05-31T08:52:08;8.10;;;2.83;;
53961;SDS011;39868;53.398;6.564;2023-05-31T08:54:36;5.82;;;2.65;;
53961;SDS011;39868;53.398;6.564;2023-05-31T08:57:04;5.10;;;2.90;;
53961;SDS011;39868;53.398;6.564;2023-05-31T08:59:33;4.20;;;2.90;;
53961;SDS011;39868;53.398;6.564;2023-05-31T09:02:01;7.70;;;3.45;;
53961;SDS011;39868;53.398;6.564;2023-05-31T09:04:29;5.40;;;3.20;;
53961;SDS011;39868;53.398;6.564;2023-05-31T09:06:57;4.95;;;3.03;;
53961;SDS011;39868;53.398;6.564;2023-05-31T09:09:25;4.93;;;3.28;;
53961;SDS011;39868;53.398;6.564;2023-05-31T09:11:52;3.78;;;2.42;;
53961;SDS011;39868;53.398;6.564;2023-05-31T09:14:20;5.68;;;2.95;;
53961;SDS011;39868;53.398;6.564;2023-05-31T09:16:50;4.85;;;2.90;;
53961;SDS011;39868;53.398;6.564;2023-05-31T09:19:17;4.43;;;3.10;;
53961;SDS011;39868;53.398;6.564;2023-05-31T09:21:45;7.57;;;3.05;;
53961;SDS011;39868;53.398;6.564;2023-05-31T09:24:13;4.53;;;3.10;;
53961;SDS011;39868;53.398;6.564;2023-05-31T09:26:45;9.35;;;3.20;;
53961;SDS011;39868;53.398;6.564;2023-05-31T09:31:44;5.13;;;2.83;;
53961;SDS011;39868;53.398;6.564;2023-05-31T09:34:25;5.43;;;3.08;;
53961;SDS011;39868;53.398;6.564;2023-05-31T09:36:59;5.65;;;2.88;;
53961;SDS011;39868;53.398;6.564;2023-05-31T09:39:26;3.25;;;2.60;;
53961;SDS011;39868;53.398;6.564;2023-05-31T09:41:55;2.67;;;2.47;;
53961;SDS011;39868;53.398;6.564;2023-05-31T09:44:27;4.95;;;2.70;;
53961;SDS011;39868;53.398;6.564;2023-05-31T09:46:54;3.75;;;2.75;;
53961;SDS011;39868;53.398;6.564;2023-05-31T09:49:24;7.00;;;3.10;;
53961;SDS011;39868;53.398;6.564;2023-05-31T09:51:52;4.57;;;2.53;;
53961;SDS011;39868;53.398;6.564;2023-05-31T09:54:19;5.45;;;2.83;;
53961;SDS011;39868;53.398;6.564;2023-05-31T09:56:54;4.43;;;2.50;;
53961;SDS011;39868;53.398;6.564;2023-05-31T09:59:21;3.33;;;3.00;;
53961;SDS011;39868;53.398;6.564;2023-05-31T10:01:49;5.28;;;2.70;;
53961;SDS011;39868;53.398;6.564;2023-05-31T10:04:17;4.32;;;3.05;;
53961;SDS011;39868;53.398;6.564;2023-05-31T10:06:46;7.25;;;3.03;;
53961;SDS011;39868;53.398;6.564;2023-05-31T10:09:14;4.10;;;2.70;;
53961;SDS011;39868;53.398;6.564;2023-05-31T10:11:46;3.63;;;2.78;;
53961;SDS011;39868;53.398;6.564;2023-05-31T10:14:26;8.35;;;3.22;;
53961;SDS011;39868;53.398;6.564;2023-05-31T10:16:59;4.00;;;3.03;;
53961;SDS011;39868;53.398;6.564;2023-05-31T10:19:37;6.72;;;2.90;;
53961;SDS011;39868;53.398;6.564;2023-05-31T10:22:11;7.43;;;2.95;;
53961;SDS011;39868;53.398;6.564;2023-05-31T10:24:51;4.90;;;2.72;;
53961;SDS011;39868;53.398;6.564;2023-05-31T10:30:02;2.90;;;2.47;;
53961;SDS011;39868;53.398;6.564;2023-05-31T10:32:41;3.85;;;2.53;;
53961;SDS011;39868;53.398;6.564;2023-05-31T10:35:12;2.75;;;2.53;;
53961;SDS011;39868;53.398;6.564;2023-05-31T10:37:40;4.70;;;2.78;;
53961;SDS011;39868;53.398;6.564;2023-05-31T10:40:15;5.70;;;2.72;;
53961;SDS011;39868;53.398;6.564;2023-05-31T10:42:50;5.40;;;2.85;;
53961;SDS011;39868;53.398;6.564;2023-05-31T10:45:41;4.50;;;2.97;;
53961;SDS011;39868;53.398;6.564;2023-05-31T10:48:25;4.15;;;2.78;;
53961;SDS011;39868;53.398;6.564;2023-05-31T10:51:04;5.22;;;2.83;;
53961;SDS011;39868;53.398;6.564;2023-05-31T10:53:36;5.88;;;3.25;;
53961;SDS011;39868;53.398;6.564;2023-05-31T10:56:05;3.05;;;2.83;;
53961;SDS011;39868;53.398;6.564;2023-05-31T10:58:58;4.70;;;3.10;;
53961;SDS011;39868;53.398;6.564;2023-05-31T11:01:28;4.75;;;3.35;;
53961;SDS011;39868;53.398;6.564;2023-05-31T11:03:55;4.60;;;3.13;;
53961;SDS011;39868;53.398;6.564;2023-05-31T11:06:30;7.10;;;2.85;;
53961;SDS011;39868;53.398;6.564;2023-05-31T11:09:11;5.07;;;3.22;;
53961;SDS011;39868;53.398;6.564;2023-05-31T11:11:45;10.13;;;3.25;;
53961;SDS011;39868;53.398;6.564;2023-05-31T11:14:24;5.43;;;2.83;;
53961;SDS011;39868;53.398;6.564;2023-05-31T11:19:27;5.13;;;3.38;;
53961;SDS011;39868;53.398;6.564;2023-05-31T11:24:30;3.28;;;2.95;;
53961;SDS011;39868;53.398;6.564;2023-05-31T11:27:03;4.32;;;2.85;;
53961;SDS011;39868;53.398;6.564;2023-05-31T11:32:14;4.93;;;2.80;;
53961;SDS011;39868;53.398;6.564;2023-05-31T11:34:52;4.53;;;3.28;;
53961;SDS011;39868;53.398;6.564;2023-05-31T11:37:21;5.18;;;3.30;;
53961;SDS011;39868;53.398;6.564;2023-05-31T11:39:50;4.75;;;3.17;;
53961;SDS011;39868;53.398;6.564;2023-05-31T11:42:17;4.72;;;3.40;;
53961;SDS011;39868;53.398;6.564;2023-05-31T11:44:45;6.20;;;3.33;;
53961;SDS011;39868;53.398;6.564;2023-05-31T11:47:17;4.85;;;3.20;;
53961;SDS011;39868;53.398;6.564;2023-05-31T11:49:46;3.53;;;3.20;;
53961;SDS011;39868;53.398;6.564;2023-05-31T11:52:15;3.47;;;2.95;;
53961;SDS011;39868;53.398;6.564;2023-05-31T11:54:44;3.47;;;2.83;;
53961;SDS011;39868;53.398;6.564;2023-05-31T11:57:12;6.95;;;3.53;;
53961;SDS011;39868;53.398;6.564;2023-05-31T11:59:39;5.80;;;3.28;;
53961;SDS011;39868;53.398;6.564;2023-05-31T12:02:08;5.10;;;3.17;;
53961;SDS011;39868;53.398;6.564;2023-05-31T12:04:40;3.58;;;2.95;;
53961;SDS011;39868;53.398;6.564;2023-05-31T12:07:12;4.00;;;2.67;;
53961;SDS011;39868;53.398;6.564;2023-05-31T12:09:48;6.75;;;2.83;;
53961;SDS011;39868;53.398;6.564;2023-05-31T12:12:16;4.18;;;2.83;;
53961;SDS011;39868;53.398;6.564;2023-05-31T12:14:50;7.53;;;3.30;;
53961;SDS011;39868;53.398;6.564;2023-05-31T12:17:21;3.80;;;2.90;;
53961;SDS011;39868;53.398;6.564;2023-05-31T12:19:48;9.65;;;3.72;;
53961;SDS011;39868;53.398;6.564;2023-05-31T12:22:16;3.90;;;2.67;;
53961;SDS011;39868;53.398;6.564;2023-05-31T12:24:50;6.40;;;3.20;;
53961;SDS011;39868;53.398;6.564;2023-05-31T12:27:20;4.47;;;2.90;;
53961;SDS011;39868;53.398;6.564;2023-05-31T12:30:12;6.30;;;2.72;;
53961;SDS011;39868;53.398;6.564;2023-05-31T12:32:44;6.10;;;3.17;;
53961;SDS011;39868;53.398;6.564;2023-05-31T12:35:12;5.32;;;3.10;;
53961;SDS011;39868;53.398;6.564;2023-05-31T12:37:41;5.95;;;2.88;;
53961;SDS011;39868;53.398;6.564;2023-05-31T12:40:09;3.75;;;2.85;;
53961;SDS011;39868;53.398;6.564;2023-05-31T12:42:38;6.30;;;3.00;;
53961;SDS011;39868;53.398;6.564;2023-05-31T12:45:06;5.32;;;3.33;;
53961;SDS011;39868;53.398;6.564;2023-05-31T12:47:35;5.93;;;2.92;;
53961;SDS011;39868;53.398;6.564;2023-05-31T12:50:05;7.50;;;3.17;;
53961;SDS011;39868;53.398;6.564;2023-05-31T12:52:34;5.53;;;3.35;;
53961;SDS011;39868;53.398;6.564;2023-05-31T12:55:06;5.03;;;3.30;;
53961;SDS011;39868;53.398;6.564;2023-05-31T12:57:34;8.13;;;3.58;;
53961;SDS011;39868;53.398;6.564;2023-05-31T13:00:06;5.32;;;3.22;;
53961;SDS011;39868;53.398;6.564;2023-05-31T13:02:38;4.15;;;3.10;;
53961;SDS011;39868;53.398;6.564;2023-05-31T13:05:06;6.43;;;3.13;;
53961;SDS011;39868;53.398;6.564;2023-05-31T13:07:34;4.00;;;3.28;;
53961;SDS011;39868;53.398;6.564;2023-05-31T13:10:03;5.82;;;2.80;;
53961;SDS011;39868;53.398;6.564;2023-05-31T13:12:37;5.43;;;2.60;;
53961;SDS011;39868;53.398;6.564;2023-05-31T13:15:05;5.03;;;2.58;;
53961;SDS011;39868;53.398;6.564;2023-05-31T13:17:33;6.50;;;3.05;;
53961;SDS011;39868;53.398;6.564;2023-05-31T13:20:01;5.80;;;2.80;;
53961;SDS011;39868;53.398;6.564;2023-05-31T13:22:31;6.47;;;3.20;;
53961;SDS011;39868;53.398;6.564;2023-05-31T13:24:58;3.85;;;2.95;;
53961;SDS011;39868;53.398;6.564;2023-05-31T13:27:26;4.30;;;3.00;;
53961;SDS011;39868;53.398;6.564;2023-05-31T13:29:53;5.68;;;2.95;;
53961;SDS011;39868;53.398;6.564;2023-05-31T13:32:21;5.78;;;3.00;;
53961;SDS011;39868;53.398;6.564;2023-05-31T13:34:48;4.10;;;2.80;;
53961;SDS011;39868;53.398;6.564;2023-05-31T13:37:16;4.03;;;2.72;;
53961;SDS011;39868;53.398;6.564;2023-05-31T13:39:47;3.53;;;2.30;;
53961;SDS011;39868;53.398;6.564;2023-05-31T13:42:14;7.50;;;2.80;;
53961;SDS011;39868;53.398;6.564;2023-05-31T13:44:42;3.95;;;2.85;;
53961;SDS011;39868;53.398;6.564;2023-05-31T13:47:09;6.22;;;3.58;;
53961;SDS011;39868;53.398;6.564;2023-05-31T13:49:37;4.20;;;3.30;;
53961;SDS011;39868;53.398;6.564;2023-05-31T13:52:04;5.53;;;2.75;;
53961;SDS011;39868;53.398;6.564;2023-05-31T13:54:34;5.13;;;3.40;;
53961;SDS011;39868;53.398;6.564;2023-05-31T13:57:02;4.95;;;3.20;;
53961;SDS011;39868;53.398;6.564;2023-05-31T13:59:30;5.22;;;3.22;;
53961;SDS011;39868;53.398;6.564;2023-05-31T14:01:58;7.20;;;3.45;;
53961;SDS011;39868;53.398;6.564;2023-05-31T14:04:25;7.53;;;3.00;;
53961;SDS011;39868;53.398;6.564;2023-05-31T14:06:52;4.18;;;3.35;;
53961;SDS011;39868;53.398;6.564;2023-05-31T14:09:20;4.25;;;3.03;;
53961;SDS011;39868;53.398;6.564;2023-05-31T14:11:47;5.78;;;3.13;;
53961;SDS011;39868;53.398;6.564;2023-05-31T14:14:14;6.28;;;3.42;;
53961;SDS011;39868;53.398;6.564;2023-05-31T14:16:42;7.15;;;3.63;;
53961;SDS011;39868;53.398;6.564;2023-05-31T14:19:09;5.95;;;3.72;;
53961;SDS011;39868;53.398;6.564;2023-05-31T14:21:37;5.15;;;3.28;;
53961;SDS011;39868;53.398;6.564;2023-05-31T14:24:07;3.42;;;3.13;;
53961;SDS011;39868;53.398;6.564;2023-05-31T14:26:34;5.97;;;3.53;;
53961;SDS011;39868;53.398;6.564;2023-05-31T14:29:02;5.75;;;3.42;;
53961;SDS011;39868;53.398;6.564;2023-05-31T14:31:29;4.90;;;3.40;;
53961;SDS011;39868;53.398;6.564;2023-05-31T14:33:56;5.88;;;3.05;;
53961;SDS011;39868;53.398;6.564;2023-05-31T14:36:24;3.38;;;3.08;;
53961;SDS011;39868;53.398;6.564;2023-05-31T14:38:52;4.32;;;3.20;;
53961;SDS011;39868;53.398;6.564;2023-05-31T14:41:19;5.97;;;3.50;;
53961;SDS011;39868;53.398;6.564;2023-05-31T14:43:47;4.50;;;3.05;;
53961;SDS011;39868;53.398;6.564;2023-05-31T14:46:16;4.97;;;2.97;;
53961;SDS011;39868;53.398;6.564;2023-05-31T14:48:43;7.65;;;3.22;;
53961;SDS011;39868;53.398;6.564;2023-05-31T14:51:11;5.38;;;3.70;;
53961;SDS011;39868;53.398;6.564;2023-05-31T14:53:38;5.28;;;3.53;;
53961;SDS011;39868;53.398;6.564;2023-05-31T14:56:06;5.68;;;3.83;;
53961;SDS011;39868;53.398;6.564;2023-05-31T14:58:44;6.32;;;3.88;;
53961;SDS011;39868;53.398;6.564;2023-05-31T15:01:14;6.40;;;3.90;;
53961;SDS011;39868;53.398;6.564;2023-05-31T15:03:41;6.32;;;4.20;;
53961;SDS011;39868;53.398;6.564;2023-05-31T15:06:09;6.53;;;3.97;;
53961;SDS011;39868;53.398;6.564;2023-05-31T15:08:36;7.57;;;4.68;;
53961;SDS011;39868;53.398;6.564;2023-05-31T15:11:04;7.97;;;4.43;;
53961;SDS011;39868;53.398;6.564;2023-05-31T15:13:31;8.70;;;4.03;;
53961;SDS011;39868;53.398;6.564;2023-05-31T15:15:59;5.60;;;4.32;;
53961;SDS011;39868;53.398;6.564;2023-05-31T15:18:27;4.28;;;3.75;;
53961;SDS011;39868;53.398;6.564;2023-05-31T15:20:55;7.22;;;4.15;;
53961;SDS011;39868;53.398;6.564;2023-05-31T15:23:22;7.03;;;3.83;;
53961;SDS011;39868;53.398;6.564;2023-05-31T15:25:49;5.38;;;3.58;;
53961;SDS011;39868;53.398;6.564;2023-05-31T15:28:17;8.73;;;4.43;;
53961;SDS011;39868;53.398;6.564;2023-05-31T15:30:44;6.78;;;3.90;;